Time;durP1;ratioP1;P1;durP2;ratioP2;P2;SDS_P1;SDS_P2;PMS_P1;PMS_P2;Temp;Humidity;BMP_temperature;BMP_pressure;BME280_temperature;BME280_humidity;BME280_pressure;Samples;Min_cycle;Max_cycle;Signal;HPM_P1;HPM_P2
2022/09/29 00:00:22;;;;;;;9.48;4.57;;;;;;;8.10;100.00;98231.06;12181520;19;20037;-77
2022/09/29 00:04:23;;;;;;;10.18;4.78;;;;;;;8.09;100.00;98230.25;12200002;19;20014;-76
2022/09/29 00:08:27;;;;;;;13.05;5.03;;;;;;;8.08;100.00;98231.31;12206073;19;20101;-76
2022/09/29 00:12:29;;;;;;;7.53;4.55;;;;;;;8.08;100.00;98233.25;12174821;19;20031;-77
2022/09/29 00:16:31;;;;;;;9.73;4.68;;;;;;;8.05;100.00;98240.09;12203769;19;20010;-78
2022/09/29 00:20:33;;;;;;;9.70;4.60;;;;;;;8.04;100.00;98240.38;12203042;19;20022;-77
2022/09/29 00:24:34;;;;;;;10.83;4.80;;;;;;;8.03;100.00;98239.56;12179276;19;20003;-79
2022/09/29 00:28:40;;;;;;;10.77;4.68;;;;;;;8.03;100.00;98244.19;12200773;19;20094;-77
2022/09/29 00:32:42;;;;;;;10.82;4.95;;;;;;;8.00;100.00;98240.06;12198575;19;20470;-77
2022/09/29 00:36:43;;;;;;;9.23;4.38;;;;;;;7.97;100.00;98240.63;12180392;19;20021;-77
2022/09/29 00:40:45;;;;;;;10.02;4.80;;;;;;;7.95;100.00;98240.91;12203913;19;20411;-76
2022/09/29 00:45:05;;;;;;;14.07;5.72;;;;;;;7.94;100.00;98241.16;12214995;19;20077;-77
2022/09/29 00:49:13;;;;;;;10.52;5.38;;;;;;;7.92;100.00;98244.19;12190819;19;20046;-77
2022/09/29 00:53:17;;;;;;;11.63;6.25;;;;;;;7.91;100.00;98241.69;12212482;19;20472;-77
2022/09/29 00:57:28;;;;;;;15.63;6.03;;;;;;;7.93;100.00;98245.00;12188584;19;20496;-77
2022/09/29 01:01:31;;;;;;;12.32;6.70;;;;;;;7.91;100.00;98239.81;12211853;19;20467;-78
2022/09/29 01:05:38;;;;;;;14.38;6.45;;;;;;;7.87;100.00;98235.94;12211521;19;20007;-78
2022/09/29 01:09:42;;;;;;;12.55;6.68;;;;;;;7.89;100.00;98238.44;12188129;19;20014;-77
2022/09/29 01:13:45;;;;;;;13.55;6.15;;;;;;;7.87;100.00;98232.38;12210903;19;20011;-77
2022/09/29 01:17:47;;;;;;;16.08;6.80;;;;;;;7.86;100.00;98225.25;12210417;19;20038;-77
2022/09/29 01:22:20;;;;;;;17.58;7.03;;;;;;;7.82;100.00;98227.69;12189373;19;20562;-77
2022/09/29 01:26:27;;;;;;;11.52;6.05;;;;;;;7.78;100.00;98225.78;12202156;19;20014;-77
2022/09/29 01:30:52;;;;;;;14.02;6.50;;;;;;;7.78;100.00;98231.25;12187872;19;20014;-77
2022/09/29 01:35:17;;;;;;;17.05;6.78;;;;;;;7.72;100.00;98228.50;12206868;19;20478;-76
2022/09/29 01:39:29;;;;;;;15.48;6.60;;;;;;;7.67;100.00;98231.22;12185133;19;20007;-77
2022/09/29 01:43:50;;;;;;;14.13;6.35;;;;;;;7.66;100.00;98235.06;12208584;19;20006;-77
2022/09/29 01:47:57;;;;;;;19.20;6.97;;;;;;;7.66;100.00;98224.09;12209721;19;20006;-76
2022/09/29 01:52:08;;;;;;;11.95;6.38;;;;;;;7.66;100.00;98235.06;12186323;19;20090;-77
2022/09/29 01:56:36;;;;;;;16.63;7.45;;;;;;;7.66;100.00;98235.06;12206706;19;20030;-77
2022/09/29 02:00:45;;;;;;;16.50;7.55;;;;;;;7.65;100.00;98230.69;12186706;19;20011;-77
2022/09/29 02:04:53;;;;;;;19.83;7.53;;;;;;;7.63;100.00;98237.53;12209602;19;20412;-76
2022/09/29 02:09:01;;;;;;;16.02;7.45;;;;;;;7.58;100.00;98235.56;12197246;19;20002;-78
2022/09/29 02:13:06;;;;;;;16.60;7.97;;;;;;;7.53;100.00;98233.66;12205422;19;20021;-77
2022/09/29 02:17:18;;;;;;;15.55;7.35;;;;;;;7.49;100.00;98237.19;12209681;19;20034;-77
2022/09/29 02:21:21;;;;;;;15.80;7.47;;;;;;;7.45;100.00;98239.66;12182601;19;20467;-77
2022/09/29 02:25:23;;;;;;;20.20;8.13;;;;;;;7.44;100.00;98242.66;12207104;19;20007;-76
2022/09/29 02:29:25;;;;;;;16.60;8.10;;;;;;;7.43;100.00;98247.31;12208819;19;20003;-77
2022/09/29 02:33:27;;;;;;;17.10;8.20;;;;;;;7.44;100.00;98243.50;12184574;19;20022;-76
2022/09/29 02:37:57;;;;;;;16.05;8.82;;;;;;;7.42;100.00;98245.66;12208818;19;20011;-77
2022/09/29 02:42:08;;;;;;;22.17;9.15;;;;;;;7.41;100.00;98255.00;12183097;19;20470;-77
2022/09/29 02:46:22;;;;;;;21.73;9.32;;;;;;;7.41;100.00;98249.50;12205431;19;20003;-76
2022/09/29 02:50:35;;;;;;;19.15;9.32;;;;;;;7.41;100.00;98260.47;12205026;19;20656;-77
2022/09/29 02:54:37;;;;;;;18.52;8.90;;;;;;;7.46;100.00;98255.00;12184506;19;20018;-78
2022/09/29 02:58:53;;;;;;;20.13;9.95;;;;;;;7.59;100.00;98255.63;12206025;19;20074;-77
2022/09/29 03:02:54;;;;;;;22.30;10.30;;;;;;;7.70;100.00;98258.13;12205019;19;20006;-77
2022/09/29 03:06:56;;;;;;;21.67;9.90;;;;;;;7.83;100.00;98259.53;12184708;19;20010;-77
2022/09/29 03:10:58;;;;;;;23.13;10.68;;;;;;;7.93;100.00;98258.72;12204184;19;20017;-78
2022/09/29 03:14:59;;;;;;;21.98;10.13;;;;;;;8.01;100.00;98251.91;12184173;19;20853;-77
2022/09/29 03:19:04;;;;;;;21.27;11.10;;;;;;;8.10;100.00;98256.56;12204265;19;20131;-77
2022/09/29 03:23:05;;;;;;;24.75;11.07;;;;;;;8.18;100.00;98253.28;12206148;19;20086;-77
2022/09/29 03:27:11;;;;;;;22.85;10.98;;;;;;;8.21;100.00;98252.75;12183432;19;20731;-77
2022/09/29 03:31:12;;;;;;;22.27;10.23;;;;;;;8.23;100.00;98253.28;12206056;19;20006;-76
2022/09/29 03:35:14;;;;;;;22.10;11.07;;;;;;;8.27;100.00;98256.31;12203237;19;20011;-75
2022/09/29 03:39:15;;;;;;;23.85;10.48;;;;;;;8.26;100.00;98259.34;12181586;19;20000;-76
2022/09/29 03:43:34;;;;;;;23.60;10.20;;;;;;;8.25;100.00;98260.44;12203401;19;20010;-79
2022/09/29 03:47:37;;;;;;;24.73;11.00;;;;;;;8.24;100.00;98259.63;12200968;19;20006;-75
2022/09/29 03:51:38;;;;;;;22.45;10.55;;;;;;;8.26;100.00;98251.09;12179912;19;20006;-76
2022/09/29 03:55:44;;;;;;;27.33;10.45;;;;;;;8.31;100.00;98251.94;12204205;19;20010;-75
2022/09/29 03:59:46;;;;;;;24.10;11.40;;;;;;;8.37;100.00;98266.47;12204704;19;20010;-75
2022/09/29 04:03:47;;;;;;;27.17;12.82;;;;;;;8.39;100.00;98265.16;12181478;19;20007;-76
2022/09/29 04:07:49;;;;;;;22.75;10.95;;;;;;;8.39;100.00;98258.84;12201225;19;20030;-76
2022/09/29 04:11:51;;;;;;;34.08;12.57;;;;;;;8.33;100.00;98259.88;12200688;19;20026;-75
2022/09/29 04:15:58;;;;;;;25.67;11.35;;;;;;;8.26;100.00;98265.63;12183245;19;20010;-75
2022/09/29 04:20:00;;;;;;;25.48;11.40;;;;;;;8.24;100.00;98259.63;12208889;19;20127;-76
2022/09/29 04:24:03;;;;;;;19.70;11.15;;;;;;;8.19;100.00;98263.16;12192446;19;20328;-76
2022/09/29 04:28:04;;;;;;;23.67;11.90;;;;;;;8.07;100.00;98261.78;12217142;19;20007;-77
2022/09/29 04:32:06;;;;;;;22.42;11.65;;;;;;;7.91;100.00;98267.22;12217174;19;20329;-76
2022/09/29 04:36:08;;;;;;;24.20;12.77;;;;;;;7.80;100.00;98265.56;12197724;19;21252;-76
2022/09/29 04:40:10;;;;;;;21.30;8.97;;;;;;;7.65;100.00;98262.75;12212076;19;20067;-78
2022/09/29 04:44:12;;;;;;;23.95;10.93;;;;;;;7.54;100.00;98270.09;12207537;19;20018;-78
2022/09/29 04:48:14;;;;;;;24.83;12.00;;;;;;;7.43;100.00;98269.22;12167029;19;20041;-76
2022/09/29 04:52:15;;;;;;;31.63;12.98;;;;;;;7.38;100.00;98276.63;12213248;19;20009;-76
2022/09/29 04:56:17;;;;;;;26.90;13.05;;;;;;;7.42;100.00;98275.00;12214310;19;20011;-77
2022/09/29 05:00:20;;;;;;;25.08;12.27;;;;;;;7.50;100.00;98283.53;12195056;19;20646;-80
2022/09/29 05:04:22;;;;;;;39.63;13.63;;;;;;;7.57;100.00;98286.03;12218857;19;20010;-78
2022/09/29 05:08:26;;;;;;;135.15;21.70;;;;;;;7.58;100.00;98286.84;12214188;19;20105;-76
2022/09/29 05:12:28;;;;;;;53.40;14.25;;;;;;;7.53;100.00;98290.41;12192763;19;20066;-76
2022/09/29 05:16:30;;;;;;;113.95;18.67;;;;;;;7.52;100.00;98288.72;12217470;19;20396;-78
2022/09/29 05:20:32;;;;;;;376.27;36.97;;;;;;;7.51;100.00;98287.09;12217706;19;20006;-77
2022/09/29 05:24:45;;;;;;;166.73;22.70;;;;;;;7.47;100.00;98302.44;12194215;19;20036;-77
2022/09/29 05:28:47;;;;;;;79.55;18.40;;;;;;;7.50;100.00;98307.38;12218988;19;20014;-78
2022/09/29 05:32:48;;;;;;;171.73;24.42;;;;;;;7.58;100.00;98317.00;12211811;19;20010;-78
2022/09/29 05:36:50;;;;;;;78.15;18.85;;;;;;;7.65;100.00;98314.84;12193891;19;20010;-76
2022/09/29 05:40:52;;;;;;;124.40;20.50;;;;;;;7.73;100.00;98320.66;12215617;19;20463;-79
2022/09/29 05:44:54;;;;;;;93.77;17.17;;;;;;;7.83;100.00;98322.59;12216370;19;20010;-77
2022/09/29 05:48:57;;;;;;;312.33;38.67;;;;;;;7.93;100.00;98321.81;12193536;19;20074;-77
2022/09/29 05:53:02;;;;;;;129.10;19.83;;;;;;;7.99;100.00;98326.22;12215610;19;20002;-78
2022/09/29 05:57:04;;;;;;;116.68;23.15;;;;;;;8.06;100.00;98326.81;12192270;19;20017;-77
2022/09/29 06:01:07;;;;;;;195.55;25.63;;;;;;;8.12;100.00;98327.63;12210572;19;20006;-78
2022/09/29 06:05:09;;;;;;;83.55;21.15;;;;;;;8.12;100.00;98331.22;12213817;19;20115;-78
2022/09/29 06:09:11;;;;;;;139.60;24.40;;;;;;;8.17;100.00;98328.44;12190262;19;20002;-77
2022/09/29 06:13:13;;;;;;;88.47;20.80;;;;;;;8.18;100.00;98326.56;12212854;19;20031;-76
2022/09/29 06:17:15;;;;;;;93.05;21.15;;;;;;;8.21;100.00;98329.59;12214155;19;20011;-77
2022/09/29 06:21:23;;;;;;;123.13;21.80;;;;;;;8.21;100.00;98329.59;12193088;19;20110;-79
2022/09/29 06:25:24;;;;;;;205.38;28.45;;;;;;;8.25;100.00;98337.28;12213531;19;20006;-77
2022/09/29 06:29:26;;;;;;;65.05;17.85;;;;;;;8.25;100.00;98334.53;12214383;19;20031;-76
2022/09/29 06:33:29;;;;;;;95.00;18.05;;;;;;;8.36;100.00;98338.94;12184477;19;20015;-77
2022/09/29 06:37:33;;;;;;;80.07;18.10;;;;;;;8.42;100.00;98333.22;12213477;19;20006;-78
2022/09/29 06:41:35;;;;;;;43.53;15.25;;;;;;;8.55;100.00;98336.53;12212634;19;20002;-76
2022/09/29 06:45:37;;;;;;;38.78;13.57;;;;;;;8.70;100.00;98342.03;12190137;19;20026;-77
2022/09/29 06:49:38;;;;;;;33.80;12.73;;;;;;;8.90;100.00;98330.25;12211720;19;20467;-78
2022/09/29 06:53:40;;;;;;;33.10;12.35;;;;;;;9.05;100.00;98341.22;12208874;19;20006;-78
2022/09/29 06:57:44;;;;;;;29.50;12.13;;;;;;;9.29;100.00;98346.97;12187372;19;20011;-78
2022/09/29 07:01:49;;;;;;;36.97;12.27;;;;;;;9.46;100.00;98352.16;12206018;19;20014;-78
2022/09/29 07:05:52;;;;;;;45.08;12.63;;;;;;;9.40;100.00;98361.53;12214972;19;20015;-78
2022/09/29 07:10:14;;;;;;;27.80;12.23;;;;;;;9.31;100.00;98369.50;12190746;19;20007;-79
2022/09/29 07:14:19;;;;;;;33.08;11.88;;;;;;;9.32;100.00;98378.56;12207803;19;20022;-79
2022/09/29 07:18:21;;;;;;;76.97;17.17;;;;;;;9.31;100.00;98375.00;12190852;19;20428;-78
2022/09/29 07:22:23;;;;;;;90.53;16.23;;;;;;;9.36;100.00;98372.22;12209747;19;20007;-81
2022/09/29 07:26:24;;;;;;;27.73;12.45;;;;;;;9.38;100.00;98374.72;12212696;19;20082;-78
2022/09/29 07:30:26;;;;;;;33.38;14.18;;;;;;;9.47;100.00;98370.28;12189509;19;20352;-77
2022/09/29 07:34:40;;;;;;;40.35;14.57;;;;;;;9.59;100.00;98367.25;12210398;19;20003;-78
2022/09/29 07:38:46;;;;;;;29.63;13.55;;;;;;;9.67;100.00;98374.13;12212971;19;20473;-80
2022/09/29 07:42:48;;;;;;;29.02;13.75;;;;;;;9.70;100.00;98379.06;12190469;19;20010;-79
2022/09/29 07:46:49;;;;;;;31.75;14.27;;;;;;;9.69;100.00;98378.22;12211190;19;20635;-79
2022/09/29 07:50:54;;;;;;;29.58;14.35;;;;;;;9.65;100.00;98384.56;12214483;19;20003;-78
2022/09/29 07:54:55;;;;;;;33.25;14.43;;;;;;;9.76;100.00;98384.25;12191858;19;20406;-77
2022/09/29 07:59:01;;;;;;;33.90;14.15;;;;;;;9.84;100.00;98388.34;12204696;19;20006;-78
2022/09/29 08:03:06;;;;;;;30.63;13.07;;;;;;;9.99;100.00;98385.56;12186564;19;20022;-79
2022/09/29 08:07:07;;;;;;;33.63;14.48;;;;;;;10.25;100.00;98385.44;12209102;19;20030;-78
2022/09/29 08:11:15;;;;;;;29.63;13.75;;;;;;;10.49;100.00;98388.38;12207714;19;20008;-79
2022/09/29 08:15:31;;;;;;;30.45;13.75;;;;;;;10.51;100.00;98382.59;12189564;19;20096;-78
2022/09/29 08:19:32;;;;;;;28.95;13.93;;;;;;;10.51;100.00;98388.94;12210019;19;20007;-79
2022/09/29 08:23:37;;;;;;;30.52;13.15;;;;;;;10.53;100.00;98388.63;12210412;19;20011;-79
2022/09/29 08:27:40;;;;;;;31.77;15.50;;;;;;;10.48;100.00;98393.06;12193459;19;20011;-79
2022/09/29 08:31:55;;;;;;;31.95;14.95;;;;;;;10.40;100.00;98406.59;12204647;19;20014;-77
2022/09/29 08:35:58;;;;;;;30.63;14.25;;;;;;;10.43;100.00;98417.88;12215568;19;20013;-80
2022/09/29 08:40:00;;;;;;;;;;;;;;;10.56;100.00;98410.09;12187204;19;20034;-79
2022/09/29 08:44:10;;;;;;;;;;;;;;;10.72;100.00;98412.50;12212819;19;19918;-78
2022/09/29 08:48:36;;;;;;;32.20;15.10;;;;;;;10.91;100.00;98420.91;12191103;19;19914;-79
2022/09/29 08:52:56;;;;;;;34.63;14.90;;;;;;;11.06;100.00;98424.66;12205074;19;20011;-77
2022/09/29 08:56:59;;;;;;;25.88;14.48;;;;;;;11.15;100.00;98428.44;12208023;19;20356;-79
2022/09/29 09:01:18;;;;;;;28.83;14.50;;;;;;;11.38;100.00;98422.19;12182742;19;20010;-77
2022/09/29 09:05:41;;;;;;;25.13;14.27;;;;;;;11.71;100.00;98422.44;12217460;19;20007;-79
2022/09/29 09:10:03;;;;;;;30.02;14.02;;;;;;;11.90;100.00;98417.06;12192178;19;20018;-77
2022/09/29 09:14:07;;;;;;;31.45;16.73;;;;;;;11.96;100.00;98432.44;12215317;19;20028;-78
2022/09/29 09:18:28;;;;;;;25.77;14.15;;;;;;;12.01;100.00;98431.56;12195772;19;20532;-77
2022/09/29 09:22:54;;;;;;;28.15;14.43;;;;;;;12.02;100.00;98436.81;12218146;19;20022;-78
2022/09/29 09:26:57;;;;;;;25.45;13.20;;;;;;;12.08;100.00;98434.81;12217478;19;20014;-77
2022/09/29 09:31:06;;;;;;;23.80;12.30;;;;;;;12.24;100.00;98439.03;12197068;19;20007;-76
2022/09/29 09:35:15;;;;;;;21.88;13.32;;;;;;;12.32;100.00;98441.13;12219384;19;20036;-81
2022/09/29 09:39:30;;;;;;;22.75;14.57;;;;;;;12.25;100.00;98446.19;12195658;19;20490;-80
2022/09/29 09:43:39;;;;;;;20.67;12.70;;;;;;;12.44;100.00;98448.19;12216811;19;20006;-77
2022/09/29 09:48:35;;;;;;;24.73;14.15;;;;;;;12.69;100.00;98449.78;12219961;19;20011;-82
2022/09/29 09:52:43;;;;;;;25.05;14.13;;;;;;;13.02;100.00;98455.41;12114224;19;2004575;-80
2022/09/29 09:56:57;;;;;;;24.85;14.15;;;;;;;13.19;100.00;98453.75;12215082;19;20025;-81
2022/09/29 10:01:05;;;;;;;23.27;13.88;;;;;;;13.32;100.00;98449.44;12195308;19;20010;-78
2022/09/29 10:05:11;;;;;;;23.08;14.85;;;;;;;13.40;100.00;98456.25;12216263;19;20022;-77
2022/09/29 10:09:14;;;;;;;23.08;14.32;;;;;;;13.69;100.00;98450.50;12196304;19;20002;-79
2022/09/29 10:13:17;;;;;;;25.83;16.63;;;;;;;13.77;100.00;98444.28;12215297;19;20003;-81
2022/09/29 10:17:22;;;;;;;20.77;14.10;;;;;;;13.95;100.00;98455.56;12218794;19;20018;-80
2022/09/29 10:21:41;;;;;;;21.25;13.80;;;;;;;14.46;100.00;98443.53;12196526;19;20219;-78
2022/09/29 10:25:51;;;;;;;22.42;14.27;;;;;;;14.72;100.00;98438.25;12218199;19;20013;-78
2022/09/29 10:29:55;;;;;;;19.13;13.48;;;;;;;15.04;96.05;98451.97;12217377;19;20011;-80
2022/09/29 10:34:16;;;;;;;20.52;13.77;;;;;;;15.85;91.85;98451.13;12194388;19;20098;-80
2022/09/29 10:38:25;;;;;;;23.00;13.85;;;;;;;16.39;88.37;98454.69;12218150;19;19999;-78
2022/09/29 10:42:35;;;;;;;18.90;12.77;;;;;;;16.56;84.98;98466.97;12194823;19;20011;-79
2022/09/29 10:46:48;;;;;;;19.77;12.30;;;;;;;16.72;82.21;98461.81;12217399;19;20103;-79
2022/09/29 10:50:56;;;;;;;16.83;11.27;;;;;;;17.25;82.31;98460.75;12216136;19;20030;-80
2022/09/29 10:55:03;;;;;;;19.48;13.70;;;;;;;17.50;77.61;98448.81;12192707;19;20086;-79
2022/09/29 10:59:05;;;;;;;17.45;11.15;;;;;;;17.40;77.60;98456.66;12219968;19;20019;-80
2022/09/29 11:03:25;;;;;;;18.23;11.65;;;;;;;17.12;76.79;98459.78;12194018;19;20478;-80
2022/09/29 11:07:27;;;;;;;17.27;12.77;;;;;;;16.60;78.07;98457.69;12214458;19;20472;-80
2022/09/29 11:11:35;;;;;;;15.07;12.00;;;;;;;16.49;79.19;98461.91;12214417;19;20017;-79
2022/09/29 11:15:40;;;;;;;16.52;11.85;;;;;;;16.31;79.99;98462.97;12193963;19;20074;-79
2022/09/29 11:19:42;;;;;;;19.17;13.60;;;;;;;15.78;81.15;98461.88;12211976;19;20033;-78
2022/09/29 11:24:04;;;;;;;20.55;13.35;;;;;;;15.51;83.46;98460.03;12210615;19;20006;-80
2022/09/29 11:28:18;;;;;;;20.17;13.03;;;;;;;15.55;83.73;98460.22;12188363;19;20006;-79
2022/09/29 11:32:41;;;;;;;18.02;12.30;;;;;;;15.79;82.24;98466.28;12208058;19;20010;-78
2022/09/29 11:36:56;;;;;;;;;;;;;;;16.06;81.92;98465.31;12190226;19;20018;-79
2022/09/29 11:41:22;;;;;;;19.88;12.55;;;;;;;16.28;80.39;98461.66;12214405;19;19914;-81
2022/09/29 11:45:53;;;;;;;15.23;11.00;;;;;;;17.36;76.37;98472.41;12189732;19;20014;-78
2022/09/29 11:50:20;;;;;;;16.55;12.05;;;;;;;18.30;71.91;98455.88;12209020;19;20078;-81
2022/09/29 11:54:56;;;;;;;16.02;10.10;;;;;;;18.98;68.36;98459.50;12187058;19;20031;-80
2022/09/29 11:59:46;;;;;;;12.55;8.85;;;;;;;19.06;65.21;98458.59;12213716;19;20018;-78
2022/09/29 12:04:13;;;;;;;13.35;9.15;;;;;;;19.06;67.43;98461.38;12181516;19;20011;-81
2022/09/29 12:08:42;;;;;;;13.25;8.90;;;;;;;18.96;67.39;98461.81;12210915;19;20030;-79
2022/09/29 12:13:21;;;;;;;13.40;10.13;;;;;;;18.86;65.81;98454.66;12186288;19;20070;-80
2022/09/29 12:17:30;;;;;;;18.65;9.98;;;;;;;18.76;65.90;98454.22;12210624;19;20011;-79
2022/09/29 12:21:39;;;;;;;14.35;10.20;;;;;;;18.73;65.00;98452.06;12188801;19;20078;-80
2022/09/29 12:25:55;;;;;;;15.32;10.30;;;;;;;19.96;62.47;98446.03;12210850;19;20011;-79
2022/09/29 12:30:12;;;;;;;13.13;10.35;;;;;;;20.78;59.69;98442.41;12213095;19;20010;-80
2022/09/29 12:34:21;;;;;;;16.52;10.38;;;;;;;20.39;59.51;98436.31;12185776;19;20006;-80
2022/09/29 12:38:43;;;;;;;14.52;9.48;;;;;;;19.87;60.36;98438.88;12215396;19;20002;-79
2022/09/29 12:42:51;;;;;;;10.77;8.18;;;;;;;20.07;60.87;98440.78;12197776;19;20030;-79
2022/09/29 12:47:08;;;;;;;12.52;8.27;;;;;;;20.09;59.13;98443.25;12222122;19;20022;-79
2022/09/29 12:51:26;;;;;;;12.45;8.10;;;;;;;19.78;57.32;98444.56;12200064;19;20023;-80
2022/09/29 12:55:45;;;;;;;8.75;6.25;;;;;;;19.13;57.90;98453.31;12221530;19;20014;-80
2022/09/29 12:59:56;;;;;;;11.68;5.40;;;;;;;18.74;56.72;98442.56;12222497;19;20027;-79
2022/09/29 13:04:24;;;;;;;6.15;4.35;;;;;;;18.65;55.40;98443.41;12198079;19;20010;-79
2022/09/29 13:08:46;;;;;;;9.27;5.65;;;;;;;18.60;54.98;98448.38;12218872;19;20002;-80
2022/09/29 13:13:12;;;;;;;10.00;4.63;;;;;;;18.28;57.11;98447.84;12197674;19;20021;-79
2022/09/29 13:17:20;;;;;;;7.53;4.00;;;;;;;17.91;57.00;98443.88;12222180;19;20449;-78
2022/09/29 13:21:21;;;;;;;7.07;3.80;;;;;;;17.49;57.55;98449.97;12199272;19;20015;-78
2022/09/29 13:25:38;;;;;;;8.50;3.80;;;;;;;17.31;56.66;98443.59;12218248;19;20027;-78
2022/09/29 13:29:52;;;;;;;9.05;3.50;;;;;;;17.17;57.04;98448.50;12218117;19;20013;-81
2022/09/29 13:33:56;;;;;;;9.75;4.40;;;;;;;16.98;55.12;98457.13;12192484;19;20018;-79
2022/09/29 13:38:05;;;;;;;6.95;3.55;;;;;;;16.80;56.89;98461.03;12215747;19;20018;-80
2022/09/29 13:42:27;;;;;;;9.00;3.92;;;;;;;16.91;56.54;98461.56;12195931;19;20022;-79
2022/09/29 13:46:29;;;;;;;12.68;3.80;;;;;;;16.94;56.93;98469.25;12218653;19;20372;-78
2022/09/29 13:50:50;;;;;;;5.25;2.60;;;;;;;17.21;54.72;98466.16;12216656;19;20002;-79
2022/09/29 13:54:52;;;;;;;7.10;3.40;;;;;;;17.17;55.94;98465.19;12193207;19;20011;-81
2022/09/29 13:58:59;;;;;;;6.97;3.55;;;;;;;17.06;56.44;98461.09;12218364;19;20630;-79
2022/09/29 14:03:04;;;;;;;9.02;4.25;;;;;;;16.96;56.57;98476.13;12216872;19;20038;-79
2022/09/29 14:07:07;;;;;;;9.48;3.92;;;;;;;16.80;57.38;98472.97;12211634;19;20032;-80
2022/09/29 14:11:18;;;;;;;8.07;3.78;;;;;;;16.64;58.50;98485.66;12217289;19;20087;-80
2022/09/29 14:15:21;;;;;;;11.05;4.55;;;;;;;16.62;59.41;98487.94;12199332;19;20003;-80
2022/09/29 14:19:38;;;;;;;;;;;;;;;16.49;60.91;98489.69;12221020;19;20011;-82
2022/09/29 14:23:53;;;;;;;7.22;3.53;;;;;;;16.47;59.39;98482.81;12217860;19;20263;-80
2022/09/29 14:27:57;;;;;;;5.10;3.10;;;;;;;16.52;59.91;98488.25;12196891;19;20026;-80
2022/09/29 14:32:01;;;;;;;11.65;3.83;;;;;;;16.37;59.63;98481.97;12212000;19;20010;-81
2022/09/29 14:36:06;;;;;;;7.05;2.90;;;;;;;16.46;60.20;98489.53;12204133;19;20011;-80
2022/09/29 14:51:56;;;;;;;6.38;3.58;;;;;;;16.34;59.21;98504.84;12191012;19;20864;-80
2022/09/29 14:54:00;;;;;;;6.15;3.05;;;;;;;16.14;60.23;98505.41;12213705;19;20341;-81
2022/09/29 14:58:23;;;;;;;7.20;3.13;;;;;;;16.07;60.48;98508.63;12191880;19;20018;-78
2022/09/29 15:02:27;;;;;;;8.60;3.37;;;;;;;16.03;61.21;98509.56;12210270;19;20078;-78
2022/09/29 15:06:30;;;;;;;12.15;4.22;;;;;;;15.86;61.42;98511.13;12187387;19;20256;-78
2022/09/29 15:10:39;;;;;;;8.23;3.60;;;;;;;15.71;62.58;98517.06;12210274;19;20090;-81
2022/09/29 15:14:41;;;;;;;8.18;3.45;;;;;;;15.60;63.13;98532.28;12211047;19;20015;-80
2022/09/29 15:19:03;;;;;;;7.95;3.70;;;;;;;15.55;62.81;98516.53;12187868;19;20018;-79
2022/09/29 15:23:20;;;;;;;7.53;3.43;;;;;;;15.48;63.22;98521.72;12210433;19;20093;-78
2022/09/29 15:27:22;;;;;;;9.02;2.88;;;;;;;15.41;63.63;98521.34;12190631;19;20011;-79
2022/09/29 15:31:30;;;;;;;7.18;2.75;;;;;;;15.36;63.37;98525.06;12211102;19;20062;-81
2022/09/29 15:35:39;;;;;;;4.50;2.50;;;;;;;15.32;63.25;98526.81;12212267;19;20014;-79
2022/09/29 15:39:51;;;;;;;10.15;2.88;;;;;;;15.30;63.67;98531.84;12188331;19;20015;-80
2022/09/29 15:43:56;;;;;;;5.60;2.57;;;;;;;15.37;63.99;98540.56;12211192;19;20061;-81
2022/09/29 15:48:05;;;;;;;6.50;2.33;;;;;;;15.36;63.58;98532.56;12222509;19;20013;-78
2022/09/29 15:52:13;;;;;;;6.88;2.63;;;;;;;15.33;63.83;98539.56;12212651;19;20019;-80
2022/09/29 15:56:15;;;;;;;7.13;2.55;;;;;;;15.34;63.76;98538.41;12214151;19;20010;-81
2022/09/29 16:00:19;;;;;;;6.55;2.10;;;;;;;15.22;65.11;98543.69;12192636;19;20006;-80
2022/09/29 16:04:21;;;;;;;7.32;2.80;;;;;;;15.08;65.61;98545.66;12213249;19;20010;-80
2022/09/29 16:08:27;;;;;;;5.20;2.47;;;;;;;14.90;68.00;98539.94;12211247;19;20022;-81
2022/09/29 16:12:34;;;;;;;8.18;3.70;;;;;;;14.74;70.16;98555.25;12187833;19;20387;-79
2022/09/29 16:16:41;;;;;;;12.77;4.18;;;;;;;14.56;71.55;98566.09;12213928;19;20007;-80
2022/09/29 16:20:43;;;;;;;9.93;3.20;;;;;;;14.39;73.14;98574.16;12213722;19;20014;-82
2022/09/29 16:25:09;;;;;;;6.95;2.55;;;;;;;14.24;75.82;98575.25;12189988;19;20368;-82
2022/09/29 16:29:16;;;;;;;5.78;2.30;;;;;;;14.08;76.33;98585.78;12211475;19;20003;-81
2022/09/29 16:33:21;;;;;;;6.60;3.17;;;;;;;13.92;78.24;98587.19;12190160;19;20086;-79
2022/09/29 16:37:24;;;;;;;9.75;2.97;;;;;;;13.81;79.19;98599.53;12211402;19;20014;-81
2022/09/29 16:41:36;;;;;;;;;;;;;;;13.68;80.17;98601.09;12212592;19;20010;-81
2022/09/29 16:45:39;;;;;;;5.38;2.85;;;;;;;13.57;79.72;98605.16;12190329;19;19942;-78
2022/09/29 16:49:49;;;;;;;6.18;2.95;;;;;;;13.45;81.44;98608.38;12212609;19;20081;-80
2022/09/29 16:53:57;;;;;;;7.50;3.03;;;;;;;13.32;83.68;98606.31;12209607;19;20109;-81
2022/09/29 16:58:08;;;;;;;10.60;3.33;;;;;;;13.18;84.75;98601.50;12187678;19;20014;-80
2022/09/29 17:02:12;;;;;;;5.57;3.30;;;;;;;13.10;85.80;98610.44;12209496;19;20006;-81
2022/09/29 17:06:13;;;;;;;7.43;3.45;;;;;;;13.01;86.67;98609.44;12187959;19;20062;-83
2022/09/29 17:10:18;;;;;;;16.42;5.53;;;;;;;12.93;87.23;98612.84;12204975;19;20007;-80
2022/09/29 17:14:22;;;;;;;13.95;4.72;;;;;;;12.84;88.05;98617.38;12207801;19;20014;-81
2022/09/29 17:18:25;;;;;;;10.40;3.08;;;;;;;12.74;88.78;98618.34;12186766;19;20033;-79
2022/09/29 17:22:33;;;;;;;6.85;3.15;;;;;;;12.65;89.00;98615.38;12207603;19;20011;-79
2022/09/29 17:31:11;;;;;;;5.70;2.50;;;;;;;12.48;89.71;98626.06;12199401;19;20006;-81
2022/09/29 17:35:16;;;;;;;5.75;2.47;;;;;;;12.41;90.15;98631.94;12219659;19;20014;-80
2022/09/29 17:39:17;;;;;;;6.18;2.90;;;;;;;12.29;90.51;98642.53;12192399;19;20934;-80
2022/09/29 17:43:22;;;;;;;6.50;2.88;;;;;;;12.16;90.70;98645.94;12216287;19;20034;-80
2022/09/29 17:47:23;;;;;;;11.15;3.28;;;;;;;11.98;91.70;98656.56;12217648;19;20011;-79
2022/09/29 17:51:30;;;;;;;9.05;3.03;;;;;;;11.77;92.17;98653.09;12199872;19;20017;-80
2022/09/29 17:55:33;;;;;;;8.63;3.55;;;;;;;11.58;92.39;98666.75;12219379;19;20046;-80
2022/09/29 17:59:39;;;;;;;10.52;4.70;;;;;;;11.42;93.29;98676.19;12221040;19;20021;-80
2022/09/29 18:03:47;;;;;;;8.75;4.00;;;;;;;11.26;94.65;98678.19;12197043;19;20042;-80
2022/09/29 18:07:50;;;;;;;8.10;3.25;;;;;;;11.12;95.38;98682.66;12214573;19;20015;-81
2022/09/29 18:11:52;;;;;;;;;;;;;;;10.93;96.42;98675.00;12212363;19;20022;-80
2022/09/29 18:15:54;;;;;;;6.40;3.55;;;;;;;10.80;96.04;98672.03;12189204;19;19929;-81
2022/09/29 18:19:57;;;;;;;10.57;3.75;;;;;;;10.66;97.31;98671.78;12216397;19;20376;-80
2022/09/29 18:23:59;;;;;;;8.45;3.63;;;;;;;10.57;99.08;98676.19;12219387;19;20349;-80
2022/09/29 18:28:02;;;;;;;11.30;4.00;;;;;;;10.51;99.90;98680.06;12196107;19;20040;-81
2022/09/29 18:32:04;;;;;;;8.55;4.15;;;;;;;10.47;100.00;98677.84;12217233;19;20014;-80
2022/09/29 18:36:05;;;;;;;13.95;4.28;;;;;;;10.44;100.00;98683.94;12196501;19;20009;-78
2022/09/29 18:40:08;;;;;;;10.55;4.40;;;;;;;10.43;100.00;98698.78;12217439;19;20011;-81
2022/09/29 18:44:15;;;;;;;7.40;3.77;;;;;;;10.42;100.00;98697.13;12217660;19;20472;-79
2022/09/29 18:48:20;;;;;;;6.13;3.38;;;;;;;10.42;100.00;98704.56;12199047;19;20023;-79
2022/09/29 18:52:21;;;;;;;12.95;3.95;;;;;;;10.41;100.00;98700.16;12262490;19;20015;-82
2022/09/29 18:56:23;;;;;;;8.27;3.60;;;;;;;10.39;100.00;98713.38;12264355;19;20006;-80
2022/09/29 19:00:33;;;;;;;7.05;4.07;;;;;;;10.35;100.00;98715.88;12242779;19;20031;-81
2022/09/29 19:04:34;;;;;;;11.50;4.28;;;;;;;10.29;100.00;98721.63;12259636;19;20010;-82
2022/09/29 19:08:36;;;;;;;9.30;4.10;;;;;;;10.20;100.00;98730.44;12222474;19;20743;-80